createdAt,value
2023-02-23T00:02:19.103Z,57.22
2023-02-23T00:04:48.200Z,59.60
2023-02-23T00:07:21.739Z,58.95
2023-02-23T00:09:51.034Z,58.90
2023-02-23T00:12:21.082Z,57.03
2023-02-23T00:14:57.023Z,57.22
2023-02-23T00:17:24.835Z,58.10
2023-02-23T00:19:52.650Z,57.88
2023-02-23T00:22:20.237Z,59.33
2023-02-23T00:24:54.216Z,56.30
2023-02-23T00:27:22.034Z,57.30
2023-02-23T00:29:49.938Z,57.80
2023-02-23T00:32:21.969Z,58.08
2023-02-23T00:34:51.918Z,57.33
2023-02-23T00:37:22.070Z,59.08
2023-02-23T00:39:52.221Z,57.00
2023-02-23T00:42:20.251Z,59.25
2023-02-23T00:44:49.079Z,55.80
2023-02-23T00:47:16.631Z,58.10
2023-02-23T00:49:47.409Z,58.72
2023-02-23T00:52:15.307Z,57.92
2023-02-23T00:54:42.968Z,55.75
2023-02-23T00:57:10.843Z,58.25
2023-02-23T00:59:38.631Z,55.65
2023-02-23T01:02:06.596Z,53.13
2023-02-23T01:04:38.188Z,55.53
2023-02-23T01:07:06.934Z,58.00
2023-02-23T01:09:34.524Z,57.85
2023-02-23T01:12:07.618Z,56.72
2023-02-23T01:14:37.705Z,56.90
2023-02-23T01:17:05.581Z,57.53
2023-02-23T01:19:34.325Z,56.83
2023-02-23T01:22:09.208Z,55.70
2023-02-23T01:24:38.771Z,55.67
2023-02-23T01:27:06.456Z,54.83
2023-02-23T01:29:34.950Z,57.67
2023-02-23T01:32:04.846Z,56.63
2023-02-23T01:34:33.121Z,54.45
2023-02-23T01:37:00.816Z,54.47
2023-02-23T01:39:29.642Z,55.97
2023-02-23T01:41:57.258Z,56.53
2023-02-23T01:44:24.830Z,54.67
2023-02-23T01:46:53.437Z,58.70
2023-02-23T01:49:28.529Z,55.80
2023-02-23T01:52:04.464Z,55.17
2023-02-23T01:54:39.954Z,54.58
2023-02-23T01:57:12.120Z,55.03
2023-02-23T01:59:43.324Z,54.20
2023-02-23T02:02:13.654Z,53.88
2023-02-23T02:04:46.004Z,54.47
2023-02-23T02:07:19.134Z,54.75
2023-02-23T02:10:09.975Z,53.65
2023-02-23T02:12:44.450Z,55.10
2023-02-23T02:15:19.992Z,53.35
2023-02-23T02:18:19.519Z,54.88
2023-02-23T02:21:15.124Z,52.75
2023-02-23T02:24:00.910Z,53.45
2023-02-23T02:26:40.256Z,56.28
2023-02-23T02:29:31.450Z,55.47
2023-02-23T02:32:14.562Z,54.95
2023-02-23T02:34:51.358Z,54.97
2023-02-23T02:37:48.141Z,56.70
2023-02-23T02:40:53.588Z,55.72
2023-02-23T02:43:51.731Z,56.22
2023-02-23T02:46:28.800Z,53.75
2023-02-23T02:49:14.902Z,55.60
2023-02-23T02:52:07.103Z,56.05
2023-02-23T02:54:44.159Z,53.22
2023-02-23T02:57:13.919Z,57.75
2023-02-23T03:00:05.624Z,54.25
2023-02-23T03:02:55.837Z,55.28
2023-02-23T03:06:06.610Z,55.53
2023-02-23T03:09:23.849Z,54.58
2023-02-23T03:12:25.552Z,54.78
2023-02-23T03:15:52.854Z,56.03
2023-02-23T03:18:56.200Z,53.30
2023-02-23T03:22:07.809Z,54.22
2023-02-23T03:25:08.610Z,52.72
2023-02-23T03:28:16.663Z,54.75
2023-02-23T03:31:11.544Z,53.05
2023-02-23T03:34:27.106Z,51.35
2023-02-23T03:37:35.241Z,53.58
2023-02-23T03:40:51.259Z,55.58
2023-02-23T03:43:44.909Z,56.25
2023-02-23T03:46:33.623Z,56.15
2023-02-23T03:49:23.746Z,56.10
2023-02-23T03:52:15.758Z,55.10
2023-02-23T03:55:15.563Z,52.90
2023-02-23T03:58:18.490Z,55.88
2023-02-23T04:01:17.133Z,54.38
2023-02-23T04:04:19.438Z,53.72
2023-02-23T04:07:50.486Z,53.93
2023-02-23T04:10:50.649Z,53.40
2023-02-23T04:13:27.085Z,55.70
2023-02-23T04:16:04.577Z,55.20
2023-02-23T04:18:39.738Z,53.42
2023-02-23T04:21:10.834Z,53.10
2023-02-23T04:23:42.467Z,55.20
2023-02-23T04:26:18.952Z,55.85
2023-02-23T04:28:47.604Z,56.72
2023-02-23T04:31:29.772Z,56.53
2023-02-23T04:34:39.146Z,57.50
2023-02-23T04:37:06.882Z,58.92
2023-02-23T04:39:34.386Z,57.67
2023-02-23T04:42:14.451Z,57.70
2023-02-23T04:44:42.238Z,59.83
2023-02-23T04:47:15.542Z,58.75
2023-02-23T04:49:46.271Z,56.92
2023-02-23T04:52:26.310Z,58.10
2023-02-23T04:55:52.323Z,57.50
2023-02-23T04:58:56.870Z,56.55
2023-02-23T05:01:24.554Z,57.75
2023-02-23T05:03:57.762Z,60.42
2023-02-23T05:06:25.480Z,57.17
2023-02-23T05:08:55.556Z,58.70
2023-02-23T05:11:23.358Z,56.10
2023-02-23T05:13:54.294Z,54.28
2023-02-23T05:16:22.204Z,58.15
2023-02-23T05:19:04.692Z,54.45
2023-02-23T05:24:24.300Z,53.95
2023-02-23T05:27:09.898Z,56.25
2023-02-23T05:30:12.941Z,55.78
2023-02-23T05:33:00.727Z,54.67
2023-02-23T05:38:44.293Z,54.42
2023-02-23T05:41:24.481Z,53.22
2023-02-23T05:44:00.769Z,56.55
2023-02-23T05:49:29.041Z,58.00
2023-02-23T05:55:01.840Z,56.80
2023-02-23T05:57:45.950Z,57.17
2023-02-23T06:00:18.374Z,57.10
2023-02-23T06:02:49.143Z,57.58
2023-02-23T06:05:16.841Z,57.63
2023-02-23T06:07:44.836Z,59.65
2023-02-23T06:10:12.709Z,58.40
2023-02-23T06:12:40.285Z,57.72
2023-02-23T06:15:08.586Z,58.15
2023-02-23T06:17:36.480Z,58.17
2023-02-23T06:20:05.423Z,59.10
2023-02-23T06:22:33.102Z,57.17
2023-02-23T06:25:00.690Z,56.33
2023-02-23T06:27:28.148Z,55.60
2023-02-23T06:29:55.635Z,56.90
2023-02-23T06:32:23.359Z,59.40
2023-02-23T06:34:52.087Z,54.67
2023-02-23T06:37:19.871Z,58.03
2023-02-23T06:39:47.916Z,55.58
2023-02-23T06:42:15.580Z,57.28
2023-02-23T06:44:43.062Z,55.97
2023-02-23T06:47:11.394Z,57.13
2023-02-23T06:49:40.531Z,56.88
2023-02-23T06:52:09.667Z,56.65
2023-02-23T06:54:40.095Z,56.92
2023-02-23T06:57:08.618Z,56.20
2023-02-23T06:59:37.048Z,57.78
2023-02-23T07:02:05.846Z,57.95
2023-02-23T07:04:33.895Z,56.40
2023-02-23T07:07:09.730Z,57.15
2023-02-23T07:09:48.129Z,55.30
2023-02-23T07:12:15.833Z,55.08
2023-02-23T07:14:43.324Z,56.47
2023-02-23T07:17:12.583Z,57.20
2023-02-23T07:19:40.263Z,55.15
2023-02-23T07:22:07.869Z,55.78
2023-02-23T07:24:35.375Z,55.78
2023-02-23T07:27:03.098Z,55.38
2023-02-23T07:29:30.917Z,56.33
2023-02-23T07:31:58.519Z,59.10
2023-02-23T07:34:27.431Z,58.28
2023-02-23T07:36:54.973Z,56.65
2023-02-23T07:39:22.486Z,56.78
2023-02-23T07:41:51.199Z,58.67
2023-02-23T07:44:19.981Z,58.33
2023-02-23T07:46:47.610Z,56.75
2023-02-23T07:49:15.286Z,59.53
2023-02-23T07:51:42.708Z,57.30
2023-02-23T07:54:10.170Z,58.03
2023-02-23T07:56:37.677Z,58.08
2023-02-23T07:59:05.275Z,54.78
2023-02-23T08:01:32.867Z,57.58
2023-02-23T08:04:01.125Z,58.40
2023-02-23T08:06:29.119Z,58.00
2023-02-23T08:09:00.339Z,58.97
2023-02-23T08:11:31.066Z,58.70
2023-02-23T08:14:00.396Z,57.97
2023-02-23T08:16:32.808Z,57.60
2023-02-23T08:19:01.645Z,57.88
2023-02-23T08:24:32.222Z,60.00
2023-02-23T08:27:01.506Z,57.00
2023-02-23T08:29:29.758Z,58.42
2023-02-23T08:32:05.249Z,57.60
2023-02-23T08:34:32.852Z,57.40
2023-02-23T08:37:00.528Z,58.45
2023-02-23T08:39:30.463Z,56.60
2023-02-23T08:42:01.733Z,59.17
2023-02-23T08:44:29.309Z,61.40
2023-02-23T08:46:58.439Z,60.22
2023-02-23T08:49:26.212Z,60.70
2023-02-23T08:51:53.985Z,60.05
2023-02-23T08:54:24.236Z,59.58
2023-02-23T08:56:55.402Z,58.70
2023-02-23T08:59:24.275Z,59.63
2023-02-23T09:01:54.774Z,59.80
2023-02-23T09:04:25.556Z,60.53
2023-02-23T09:06:54.492Z,59.97
2023-02-23T09:09:25.326Z,60.08
2023-02-23T09:11:53.312Z,59.55
2023-02-23T09:14:24.832Z,61.22
2023-02-23T09:16:52.525Z,58.70
2023-02-23T09:19:22.728Z,58.95
2023-02-23T09:21:50.414Z,59.90
2023-02-23T09:24:18.676Z,59.08
2023-02-23T09:26:46.196Z,58.97
2023-02-23T09:29:14.507Z,57.13
2023-02-23T09:31:47.023Z,61.13
2023-02-23T09:34:15.461Z,56.58
2023-02-23T09:36:43.046Z,59.78
2023-02-23T09:39:11.048Z,59.83
2023-02-23T09:42:05.488Z,58.92
2023-02-23T09:45:14.767Z,59.10
2023-02-23T09:48:19.738Z,56.42
2023-02-23T09:50:54.171Z,58.45
2023-02-23T09:53:36.576Z,58.78
2023-02-23T09:56:11.502Z,60.50
2023-02-23T09:58:40.529Z,60.20
2023-02-23T10:01:27.960Z,61.10
2023-02-23T10:04:20.385Z,60.97
2023-02-23T10:07:13.705Z,60.17
2023-02-23T10:10:08.439Z,59.30
2023-02-23T10:13:02.216Z,61.20
2023-02-23T10:15:56.072Z,60.20
2023-02-23T10:18:46.193Z,60.92
2023-02-23T10:21:30.853Z,60.08
2023-02-23T10:24:11.764Z,60.47
2023-02-23T10:26:54.338Z,58.95
2023-02-23T10:29:31.863Z,60.45
2023-02-23T10:32:47.180Z,60.67
2023-02-23T10:35:17.747Z,60.10
2023-02-23T10:37:53.589Z,60.60
2023-02-23T10:40:31.372Z,61.80
2023-02-23T10:43:01.956Z,59.03
2023-02-23T10:45:34.597Z,63.15
2023-02-23T10:48:13.638Z,59.92
2023-02-23T10:50:42.855Z,64.38
2023-02-23T10:53:36.453Z,61.85
2023-02-23T10:59:01.944Z,61.25
2023-02-23T11:02:07.587Z,60.33
2023-02-23T11:09:09.580Z,61.15
2023-02-23T11:12:24.227Z,61.33
2023-02-23T11:22:52.377Z,57.92
2023-02-23T11:29:50.136Z,59.78
2023-02-23T11:59:46.245Z,59.25
2023-02-23T12:03:19.346Z,57.35
2023-02-23T12:05:53.581Z,56.55
2023-02-23T12:08:33.745Z,58.55
2023-02-23T12:11:07.645Z,56.45
2023-02-23T12:13:41.737Z,59.83
2023-02-23T12:16:44.336Z,60.08
2023-02-23T12:19:34.169Z,59.25
2023-02-23T12:22:13.336Z,58.33
2023-02-23T12:24:49.092Z,57.75
2023-02-23T12:27:22.767Z,55.90
2023-02-23T12:30:09.229Z,57.33
2023-02-23T12:36:31.872Z,56.65
2023-02-23T12:39:05.115Z,57.70
2023-02-23T12:41:41.501Z,57.05
2023-02-23T12:44:45.027Z,60.17
2023-02-23T12:47:23.010Z,57.45
2023-02-23T12:50:17.435Z,58.95
2023-02-23T12:52:58.770Z,58.53
2023-02-23T12:55:42.036Z,57.30
2023-02-23T12:58:50.725Z,58.10
2023-02-23T13:01:43.135Z,56.85
2023-02-23T13:04:26.235Z,55.97
2023-02-23T13:07:15.202Z,56.88
2023-02-23T13:10:20.179Z,58.55
2023-02-23T13:13:30.331Z,56.97
2023-02-23T13:16:04.533Z,55.72
2023-02-23T13:19:07.571Z,57.83
2023-02-23T13:22:01.951Z,57.35
2023-02-23T13:24:49.618Z,55.63
2023-02-23T13:27:36.546Z,53.78
2023-02-23T13:30:09.409Z,54.58
2023-02-23T13:32:39.433Z,54.42
2023-02-23T13:35:19.202Z,53.42
2023-02-23T13:37:59.770Z,52.35
2023-02-23T13:40:41.750Z,53.05
2023-02-23T13:43:30.205Z,54.13
2023-02-23T13:46:24.454Z,54.08
2023-02-23T13:49:16.420Z,52.08
2023-02-23T13:51:54.234Z,52.17
2023-02-23T13:54:35.934Z,54.85
2023-02-23T13:57:12.671Z,53.50
2023-02-23T13:59:48.234Z,51.95
2023-02-23T14:02:36.191Z,53.83
2023-02-23T14:05:17.544Z,50.22
2023-02-23T14:07:48.885Z,52.20
2023-02-23T14:10:26.200Z,50.58
2023-02-23T14:13:13.400Z,52.33
2023-02-23T14:15:53.740Z,52.97
2023-02-23T14:18:21.357Z,50.17
2023-02-23T14:21:05.149Z,50.35
2023-02-23T14:24:05.520Z,50.33
2023-02-23T14:26:39.114Z,49.78
2023-02-23T14:29:28.025Z,49.53
2023-02-23T14:32:10.742Z,47.15
2023-02-23T14:35:00.916Z,44.65
2023-02-23T14:37:34.160Z,46.10
2023-02-23T14:40:12.472Z,46.78
2023-02-23T14:42:41.329Z,45.58
2023-02-23T14:45:28.943Z,45.05
2023-02-23T14:48:01.733Z,46.03
2023-02-23T14:50:35.400Z,44.78
2023-02-23T14:53:06.429Z,44.50
2023-02-23T14:55:37.581Z,43.17
2023-02-23T14:58:30.446Z,44.35
2023-02-23T15:00:58.172Z,43.60
2023-02-23T15:03:25.927Z,44.88
2023-02-23T15:05:57.504Z,45.50
2023-02-23T15:08:27.445Z,46.30
2023-02-23T15:11:11.572Z,46.50
2023-02-23T15:13:43.099Z,47.50
2023-02-23T15:16:16.568Z,46.03
2023-02-23T15:18:45.094Z,46.10
2023-02-23T15:21:17.435Z,46.83
2023-02-23T15:23:48.606Z,44.03
2023-02-23T15:26:25.998Z,45.88
2023-02-23T15:28:53.759Z,46.53
2023-02-23T15:31:21.603Z,46.70
2023-02-23T15:33:50.863Z,45.03
2023-02-23T15:36:34.885Z,43.10
2023-02-23T15:39:06.266Z,46.30
2023-02-23T15:41:38.456Z,44.90
2023-02-23T15:44:12.102Z,45.63
2023-02-23T15:46:41.836Z,45.43
2023-02-23T15:49:13.396Z,43.03
2023-02-23T15:51:49.099Z,44.90
2023-02-23T15:54:42.949Z,43.83
2023-02-23T15:57:27.053Z,42.50
2023-02-23T15:59:58.907Z,45.27
2023-02-23T16:02:26.530Z,43.28
2023-02-23T16:04:54.096Z,42.05
2023-02-23T16:07:24.671Z,42.25
2023-02-23T16:10:27.990Z,41.92
2023-02-23T16:12:55.607Z,43.33
2023-02-23T16:15:29.691Z,41.42
2023-02-23T16:18:01.414Z,41.15
2023-02-23T16:20:45.958Z,41.47
2023-02-23T16:23:33.366Z,43.47
2023-02-23T16:30:43.409Z,41.65
2023-02-23T16:33:13.198Z,42.88
2023-02-23T16:35:51.923Z,41.42
2023-02-23T16:38:26.882Z,40.25
2023-02-23T16:40:54.758Z,43.78
2023-02-23T16:43:22.421Z,42.38
2023-02-23T16:45:50.164Z,41.60
2023-02-23T16:48:18.947Z,40.20
2023-02-23T16:50:48.014Z,43.65
2023-02-23T16:53:16.977Z,40.42
2023-02-23T16:55:54.184Z,43.28
2023-02-23T16:58:24.822Z,41.65
2023-02-23T17:00:53.812Z,43.03
2023-02-23T17:03:27.508Z,44.85
2023-02-23T17:05:55.065Z,44.73
2023-02-23T17:08:24.632Z,44.53
2023-02-23T17:10:55.563Z,47.30
2023-02-23T17:13:27.605Z,44.97
2023-02-23T17:15:56.521Z,44.35
2023-02-23T17:18:26.840Z,47.30
2023-02-23T17:21:00.988Z,47.42
2023-02-23T17:23:39.121Z,46.55
2023-02-23T17:26:08.710Z,46.10
2023-02-23T17:28:36.803Z,46.95
2023-02-23T17:31:05.493Z,46.45
2023-02-23T17:33:33.695Z,47.78
2023-02-23T17:36:06.824Z,45.80
2023-02-23T17:38:34.655Z,45.65
2023-02-23T17:41:04.829Z,45.90
2023-02-23T17:46:32.565Z,47.08
2023-02-23T17:49:00.102Z,45.33
2023-02-23T17:51:27.987Z,47.03
2023-02-23T17:53:55.565Z,48.40
2023-02-23T17:56:31.797Z,45.35
2023-02-23T17:58:59.507Z,44.92
2023-02-23T18:01:27.476Z,45.85
2023-02-23T18:03:58.560Z,46.30
2023-02-23T18:06:26.059Z,46.35
2023-02-23T18:08:53.853Z,49.00
2023-02-23T18:11:21.275Z,44.22
2023-02-23T18:13:51.477Z,46.47
2023-02-23T18:16:19.889Z,45.50
2023-02-23T18:18:49.076Z,44.95
2023-02-23T18:21:23.836Z,46.78
2023-02-23T18:23:51.630Z,45.42
2023-02-23T18:26:25.976Z,45.30
2023-02-23T18:28:57.336Z,46.45
2023-02-23T18:31:30.390Z,43.38
2023-02-23T18:34:01.481Z,44.55
2023-02-23T18:36:38.234Z,44.85
2023-02-23T18:39:07.711Z,45.55
2023-02-23T18:41:35.388Z,46.60
2023-02-23T18:44:05.619Z,42.92
2023-02-23T18:46:33.713Z,46.60
2023-02-23T18:49:01.956Z,45.53
2023-02-23T18:51:29.823Z,45.00
2023-02-23T18:53:57.342Z,45.50
2023-02-23T18:56:28.333Z,45.78
2023-02-23T18:58:59.386Z,45.17
2023-02-23T19:01:30.509Z,45.33
2023-02-23T19:04:01.248Z,44.00
2023-02-23T19:06:30.038Z,46.92
2023-02-23T19:09:00.114Z,44.08
2023-02-23T19:11:30.739Z,44.78
2023-02-23T19:14:01.343Z,45.20
2023-02-23T19:16:33.102Z,44.05
2023-02-23T19:19:02.033Z,43.25
2023-02-23T19:21:29.584Z,44.53
2023-02-23T19:23:57.825Z,46.08
2023-02-23T19:26:26.880Z,45.47
2023-02-23T19:28:54.375Z,44.97
2023-02-23T19:31:26.042Z,47.75
2023-02-23T19:33:56.040Z,47.15
2023-02-23T19:36:29.793Z,46.28
2023-02-23T19:39:06.138Z,48.08
2023-02-23T19:41:34.701Z,46.65
2023-02-23T19:44:02.924Z,45.20
2023-02-23T19:46:30.485Z,46.13
2023-02-23T19:48:58.019Z,46.55
2023-02-23T19:51:25.549Z,47.13
2023-02-23T19:53:54.801Z,47.20
2023-02-23T19:56:24.944Z,49.72
2023-02-23T19:58:52.957Z,46.80
2023-02-23T20:01:23.024Z,48.15
2023-02-23T20:04:01.801Z,50.90
2023-02-23T20:06:32.346Z,48.80
2023-02-23T20:09:00.476Z,48.05
2023-02-23T20:11:30.021Z,49.63
2023-02-23T20:13:57.811Z,48.38
2023-02-23T20:16:29.711Z,48.38
2023-02-23T20:18:58.348Z,50.28
2023-02-23T20:21:30.216Z,50.30
2023-02-23T20:23:58.040Z,50.17
2023-02-23T20:26:34.256Z,50.10
2023-02-23T20:29:03.355Z,47.58
2023-02-23T20:31:37.516Z,49.67
2023-02-23T20:34:08.883Z,45.13
2023-02-23T20:36:36.439Z,49.53
2023-02-23T20:39:05.286Z,48.60
2023-02-23T20:41:33.569Z,48.80
2023-02-23T20:44:04.086Z,49.85
2023-02-23T20:46:32.138Z,50.17
2023-02-23T20:49:05.206Z,48.90
2023-02-23T20:51:33.054Z,47.97
2023-02-23T20:54:00.841Z,50.83
2023-02-23T20:56:43.462Z,49.85
2023-02-23T20:59:16.378Z,47.15
2023-02-23T21:01:45.353Z,47.85
2023-02-23T21:04:13.472Z,47.83
2023-02-23T21:06:44.807Z,48.78
2023-02-23T21:09:21.288Z,48.72
2023-02-23T21:11:50.371Z,47.13
2023-02-23T21:14:22.271Z,48.08
2023-02-23T21:16:52.847Z,47.85
2023-02-23T21:19:24.782Z,49.30
2023-02-23T21:21:58.053Z,50.00
2023-02-23T21:24:26.510Z,49.15
2023-02-23T21:26:57.530Z,49.70
2023-02-23T21:29:26.464Z,45.85
2023-02-23T21:31:54.399Z,44.92
2023-02-23T21:34:29.152Z,43.35
2023-02-23T21:37:02.116Z,47.15
2023-02-23T21:39:31.311Z,44.17
2023-02-23T21:42:30.069Z,45.67
2023-02-23T21:44:48.328Z,46.40
2023-02-23T21:47:21.430Z,48.95
2023-02-23T21:49:53.822Z,45.20
2023-02-23T21:52:31.301Z,50.53
2023-02-23T21:55:05.705Z,47.75
2023-02-23T21:57:35.598Z,49.88
2023-02-23T22:00:04.133Z,48.38
2023-02-23T22:02:48.748Z,47.33
2023-02-23T22:07:59.545Z,47.22
2023-02-23T22:10:30.843Z,47.67
2023-02-23T22:13:05.810Z,48.35
2023-02-23T22:15:37.891Z,50.28
2023-02-23T22:18:05.357Z,49.80
2023-02-23T22:20:32.851Z,50.20
2023-02-23T22:23:00.277Z,48.92
2023-02-23T22:25:31.219Z,49.78
2023-02-23T22:27:58.757Z,50.55
2023-02-23T22:30:28.451Z,51.10
2023-02-23T22:32:59.112Z,50.90
2023-02-23T22:35:29.168Z,51.55
2023-02-23T22:37:56.602Z,51.17
2023-02-23T22:40:24.382Z,50.90
2023-02-23T22:42:52.388Z,50.80
2023-02-23T22:45:20.405Z,49.83
2023-02-23T22:47:47.966Z,49.10
2023-02-23T22:50:19.335Z,50.25
2023-02-23T22:52:47.090Z,53.65
2023-02-23T22:55:14.739Z,52.63
2023-02-23T22:57:42.480Z,53.63
2023-02-23T23:00:10.713Z,51.35
2023-02-23T23:02:38.516Z,52.85
2023-02-23T23:05:06.817Z,53.38
2023-02-23T23:07:34.494Z,51.95
2023-02-23T23:10:05.816Z,52.75
2023-02-23T23:12:34.503Z,54.33
2023-02-23T23:15:07.277Z,50.63
2023-02-23T23:17:36.089Z,54.20
2023-02-23T23:20:11.790Z,52.38
2023-02-23T23:22:39.462Z,53.92
2023-02-23T23:25:14.791Z,54.30
2023-02-23T23:27:44.982Z,55.28
2023-02-23T23:30:13.458Z,52.60
2023-02-23T23:32:41.471Z,54.45
2023-02-23T23:35:13.684Z,52.38
2023-02-23T23:37:42.493Z,53.45
2023-02-23T23:40:14.758Z,53.58
2023-02-23T23:42:46.207Z,52.78
2023-02-23T23:45:16.356Z,53.78
2023-02-23T23:47:47.622Z,53.08
2023-02-23T23:50:17.959Z,52.67
2023-02-23T23:52:50.943Z,53.30
2023-02-23T23:55:19.333Z,53.65
2023-02-23T23:57:46.978Z,52.13
